createdAt,value
2022-12-18T00:01:35.071Z,39.42
2022-12-18T00:04:07.293Z,34.33
2022-12-18T00:06:38.568Z,32.30
2022-12-18T00:09:08.019Z,32.90
2022-12-18T00:11:35.969Z,24.80
2022-12-18T00:14:03.978Z,35.10
2022-12-18T00:16:33.939Z,43.95
2022-12-18T00:19:02.358Z,43.88
2022-12-18T00:21:30.932Z,35.42
2022-12-18T00:24:10.274Z,34.15
2022-12-18T00:27:26.614Z,29.73
2022-12-18T00:30:10.627Z,33.17
2022-12-18T00:34:20.929Z,29.50
2022-12-18T00:42:21.538Z,35.17
2022-12-18T00:47:09.525Z,40.92
2022-12-18T00:52:57.452Z,52.13
2022-12-18T00:55:47.866Z,29.38
2022-12-18T00:58:36.984Z,50.65
2022-12-18T01:01:10.929Z,39.38
2022-12-18T01:03:52.133Z,28.90
2022-12-18T01:06:26.793Z,34.08
2022-12-18T01:08:56.963Z,27.23
2022-12-18T01:11:27.894Z,37.92
2022-12-18T01:14:03.611Z,27.35
2022-12-18T01:16:44.203Z,29.55
2022-12-18T01:19:16.025Z,31.60
2022-12-18T01:21:49.519Z,46.97
2022-12-18T01:24:24.791Z,39.47
2022-12-18T01:26:58.206Z,28.38
2022-12-18T01:29:30.254Z,35.10
2022-12-18T01:32:00.304Z,21.17
2022-12-18T01:34:33.779Z,37.63
2022-12-18T01:37:09.512Z,23.20
2022-12-18T01:39:39.607Z,25.45
2022-12-18T01:42:16.315Z,38.20
2022-12-18T01:45:29.515Z,23.42
2022-12-18T01:48:01.514Z,23.55
2022-12-18T01:50:34.893Z,21.02
2022-12-18T01:53:13.205Z,22.17
2022-12-18T01:55:57.766Z,21.92
2022-12-18T01:58:31.271Z,20.73
2022-12-18T02:00:59.654Z,21.95
2022-12-18T02:03:47.722Z,18.05
2022-12-18T02:06:32.686Z,17.52
2022-12-18T02:09:08.196Z,16.17
2022-12-18T02:11:52.090Z,18.75
2022-12-18T02:14:43.865Z,20.20
2022-12-18T02:17:20.677Z,19.25
2022-12-18T02:20:16.601Z,14.02
2022-12-18T02:23:12.747Z,17.65
2022-12-18T02:25:56.269Z,17.85
2022-12-18T02:28:30.858Z,15.23
2022-12-18T02:31:09.792Z,14.80
2022-12-18T02:33:42.545Z,15.25
2022-12-18T02:36:17.919Z,16.38
2022-12-18T02:38:56.422Z,18.35
2022-12-18T02:41:32.161Z,16.02
2022-12-18T02:44:05.622Z,13.85
2022-12-18T02:46:39.481Z,11.77
2022-12-18T02:49:33.352Z,15.95
2022-12-18T02:52:12.066Z,16.05
2022-12-18T02:55:00.816Z,13.23
2022-12-18T02:57:37.645Z,13.20
2022-12-18T03:00:12.575Z,12.50
2022-12-18T03:02:48.083Z,15.52
2022-12-18T03:05:25.084Z,12.00
2022-12-18T03:07:57.716Z,18.05
2022-12-18T03:10:30.451Z,15.73
2022-12-18T03:13:06.663Z,14.82
2022-12-18T03:15:40.021Z,12.38
2022-12-18T03:18:16.553Z,12.77
2022-12-18T03:20:46.456Z,11.75
2022-12-18T03:23:26.139Z,12.95
2022-12-18T03:26:03.044Z,14.45
2022-12-18T03:28:39.891Z,13.10
2022-12-18T03:31:13.720Z,13.75
2022-12-18T03:33:48.007Z,12.45
2022-12-18T03:36:18.622Z,12.45
2022-12-18T03:38:46.710Z,14.15
2022-12-18T03:41:21.809Z,13.80
2022-12-18T03:44:16.939Z,13.98
2022-12-18T03:46:56.877Z,12.07
2022-12-18T03:49:34.616Z,12.73
2022-12-18T03:52:08.671Z,13.57
2022-12-18T03:54:41.846Z,14.68
2022-12-18T03:57:20.007Z,14.27
2022-12-18T03:59:56.687Z,17.73
2022-12-18T04:02:29.890Z,11.85
2022-12-18T04:05:04.704Z,14.98
2022-12-18T04:07:34.102Z,11.88
2022-12-18T04:10:04.046Z,12.23
2022-12-18T04:12:32.853Z,14.90
2022-12-18T04:15:02.518Z,10.70
2022-12-18T04:17:30.687Z,11.77
2022-12-18T04:19:58.996Z,13.13
2022-12-18T04:22:27.151Z,14.27
2022-12-18T04:24:59.999Z,15.00
2022-12-18T04:27:34.722Z,16.25
2022-12-18T04:30:05.798Z,14.50
2022-12-18T04:32:37.905Z,16.55
2022-12-18T04:35:09.485Z,13.88
2022-12-18T04:37:37.784Z,11.32
2022-12-18T04:40:07.924Z,11.57
2022-12-18T04:42:42.355Z,11.43
2022-12-18T04:45:12.344Z,12.05
2022-12-18T04:47:43.417Z,11.45
2022-12-18T04:50:14.201Z,11.30
2022-12-18T04:52:49.997Z,11.52
2022-12-18T04:55:18.229Z,13.88
2022-12-18T04:57:46.350Z,10.15
2022-12-18T05:00:16.614Z,13.85
2022-12-18T05:02:46.282Z,12.82
2022-12-18T05:05:14.371Z,11.27
2022-12-18T05:07:42.189Z,11.32
2022-12-18T05:10:11.634Z,12.55
2022-12-18T05:12:59.089Z,12.52
2022-12-18T05:15:31.973Z,13.10
2022-12-18T05:17:59.869Z,13.20
2022-12-18T05:20:29.167Z,16.58
2022-12-18T05:22:57.093Z,12.30
2022-12-18T05:25:25.733Z,14.95
2022-12-18T05:27:56.099Z,14.27
2022-12-18T05:30:24.558Z,10.95
2022-12-18T05:32:53.957Z,12.52
2022-12-18T05:35:22.772Z,11.07
2022-12-18T05:37:50.884Z,10.77
2022-12-18T05:40:21.689Z,14.68
2022-12-18T05:42:49.554Z,14.93
2022-12-18T05:45:17.436Z,12.85
2022-12-18T05:47:45.180Z,14.32
2022-12-18T05:50:14.743Z,16.52
2022-12-18T05:52:42.810Z,13.60
2022-12-18T05:55:13.628Z,12.50
2022-12-18T05:57:44.220Z,13.00
2022-12-18T06:00:19.932Z,13.82
2022-12-18T06:02:49.695Z,15.70
2022-12-18T06:05:19.350Z,17.95
2022-12-18T06:07:48.555Z,17.20
2022-12-18T06:10:20.955Z,15.68
2022-12-18T06:12:49.737Z,10.90
2022-12-18T06:15:18.133Z,13.63
2022-12-18T06:17:49.787Z,14.52
2022-12-18T06:20:20.794Z,13.73
2022-12-18T06:22:51.866Z,12.63
2022-12-18T06:25:26.442Z,15.13
2022-12-18T06:28:00.463Z,13.10
2022-12-18T06:30:28.541Z,14.88
2022-12-18T06:32:59.251Z,14.23
2022-12-18T06:35:36.435Z,13.52
2022-12-18T06:38:04.941Z,12.30
2022-12-18T06:40:37.928Z,15.20
2022-12-18T06:43:07.036Z,11.85
2022-12-18T06:45:34.815Z,11.15
2022-12-18T06:48:02.660Z,14.85
2022-12-18T06:50:33.769Z,11.90
2022-12-18T06:53:01.955Z,12.27
2022-12-18T06:55:30.451Z,17.40
2022-12-18T06:57:58.484Z,14.35
2022-12-18T07:00:26.932Z,15.65
2022-12-18T07:02:55.007Z,16.10
2022-12-18T07:05:22.941Z,12.50
2022-12-18T07:07:52.052Z,12.20
2022-12-18T07:10:20.482Z,11.53
2022-12-18T07:12:48.510Z,12.40
2022-12-18T07:15:16.485Z,11.57
2022-12-18T07:17:44.395Z,12.88
2022-12-18T07:20:12.718Z,13.75
2022-12-18T07:22:56.046Z,13.80
2022-12-18T07:25:25.885Z,13.95
2022-12-18T07:27:53.902Z,12.63
2022-12-18T07:30:23.575Z,16.08
2022-12-18T07:32:51.559Z,13.40
2022-12-18T07:35:24.772Z,13.63
2022-12-18T07:37:53.199Z,12.57
2022-12-18T07:40:21.095Z,12.73
2022-12-18T07:42:50.492Z,14.15
2022-12-18T07:45:18.573Z,14.23
2022-12-18T07:47:46.330Z,13.27
2022-12-18T07:50:14.272Z,13.55
2022-12-18T07:52:42.009Z,18.80
2022-12-18T07:55:10.523Z,17.08
2022-12-18T07:57:50.112Z,14.90
2022-12-18T08:00:20.877Z,15.18
2022-12-18T08:02:49.360Z,10.05
2022-12-18T08:05:18.980Z,12.57
2022-12-18T08:07:51.721Z,14.52
2022-12-18T08:10:19.783Z,15.75
2022-12-18T08:12:47.747Z,15.45
2022-12-18T08:15:19.479Z,12.80
2022-12-18T08:17:50.883Z,15.73
2022-12-18T08:20:19.333Z,11.40
2022-12-18T08:22:47.409Z,16.45
2022-12-18T08:25:15.483Z,14.77
2022-12-18T08:27:43.861Z,15.63
2022-12-18T08:30:13.372Z,14.65
2022-12-18T08:32:42.845Z,13.30
2022-12-18T08:35:13.121Z,12.50
2022-12-18T08:37:41.276Z,13.50
2022-12-18T08:40:11.727Z,13.98
2022-12-18T08:42:57.146Z,12.00
2022-12-18T08:45:25.953Z,15.48
2022-12-18T08:47:54.001Z,12.73
2022-12-18T08:50:26.299Z,10.82
2022-12-18T08:52:58.391Z,11.70
2022-12-18T08:55:26.973Z,12.60
2022-12-18T08:57:56.481Z,13.02
2022-12-18T09:00:24.674Z,11.70
2022-12-18T09:02:52.865Z,14.90
2022-12-18T09:05:24.302Z,13.63
2022-12-18T09:07:56.532Z,14.38
2022-12-18T09:10:27.795Z,11.45
2022-12-18T09:12:58.412Z,15.60
2022-12-18T09:15:29.166Z,14.95
2022-12-18T09:17:59.749Z,13.77
2022-12-18T09:20:29.381Z,16.67
2022-12-18T09:22:58.708Z,11.98
2022-12-18T09:25:26.571Z,14.30
2022-12-18T09:27:54.450Z,11.50
2022-12-18T09:30:22.195Z,13.57
2022-12-18T09:32:49.939Z,16.58
2022-12-18T09:35:18.144Z,11.73
2022-12-18T09:37:45.879Z,13.43
2022-12-18T09:40:18.151Z,15.05
2022-12-18T09:42:50.932Z,12.30
2022-12-18T09:45:19.691Z,12.57
2022-12-18T09:47:50.403Z,13.55
2022-12-18T09:50:34.190Z,13.77
2022-12-18T09:53:09.330Z,14.40
2022-12-18T09:55:42.242Z,15.25
2022-12-18T09:58:18.911Z,15.23
2022-12-18T10:00:46.886Z,16.77
2022-12-18T10:03:16.703Z,12.98
2022-12-18T10:05:56.061Z,12.88
2022-12-18T10:08:34.487Z,11.32
2022-12-18T10:11:14.302Z,11.80
2022-12-18T10:13:48.076Z,15.25
2022-12-18T10:16:26.381Z,13.50
2022-12-18T10:19:18.597Z,15.18
2022-12-18T10:21:58.523Z,12.70
2022-12-18T10:24:35.050Z,13.90
2022-12-18T10:27:15.577Z,14.73
2022-12-18T10:29:45.156Z,12.60
2022-12-18T10:32:17.160Z,12.18
2022-12-18T10:34:48.322Z,12.52
2022-12-18T10:37:23.645Z,13.80
2022-12-18T10:40:19.893Z,16.05
2022-12-18T10:43:06.375Z,15.20
2022-12-18T10:45:34.469Z,19.27
2022-12-18T10:48:02.810Z,12.55
2022-12-18T10:51:08.634Z,14.48
2022-12-18T10:53:24.330Z,12.73
2022-12-18T10:55:55.574Z,16.30
2022-12-18T10:58:28.169Z,14.55
2022-12-18T11:01:18.477Z,14.73
2022-12-18T11:03:50.468Z,13.82
2022-12-18T11:06:22.474Z,16.85
2022-12-18T11:09:00.538Z,16.73
2022-12-18T11:11:29.246Z,16.27
2022-12-18T11:14:05.674Z,14.15
2022-12-18T11:16:46.220Z,14.73
2022-12-18T11:19:35.000Z,12.88
2022-12-18T11:22:04.555Z,16.73
2022-12-18T11:24:34.997Z,14.65
2022-12-18T11:27:07.833Z,13.55
2022-12-18T11:29:44.813Z,14.63
2022-12-18T11:32:35.354Z,16.40
2022-12-18T11:35:16.767Z,15.43
2022-12-18T11:37:50.479Z,17.02
2022-12-18T11:40:21.613Z,19.05
2022-12-18T11:42:55.400Z,15.15
2022-12-18T11:45:35.227Z,16.50
2022-12-18T11:48:09.320Z,16.45
2022-12-18T11:50:48.799Z,15.10
2022-12-18T11:53:17.130Z,12.93
2022-12-18T11:55:53.243Z,13.40
2022-12-18T11:58:34.241Z,17.25
2022-12-18T12:01:17.492Z,12.70
2022-12-18T12:04:10.969Z,12.73
2022-12-18T12:06:47.854Z,15.65
2022-12-18T12:09:26.481Z,13.23
2022-12-18T12:12:09.473Z,14.02
2022-12-18T12:14:50.352Z,13.93
2022-12-18T12:17:26.620Z,14.73
2022-12-18T12:20:04.014Z,12.90
2022-12-18T12:22:41.751Z,12.95
2022-12-18T12:25:28.972Z,14.60
2022-12-18T12:28:07.570Z,16.33
2022-12-18T12:30:46.581Z,14.57
2022-12-18T12:33:34.792Z,14.25
2022-12-18T12:36:12.048Z,15.52
2022-12-18T12:38:51.598Z,14.43
2022-12-18T12:41:41.551Z,14.40
2022-12-18T12:44:15.461Z,16.52
2022-12-18T12:46:45.686Z,14.32
2022-12-18T12:49:19.824Z,15.60
2022-12-18T12:51:52.310Z,16.80
2022-12-18T12:54:25.613Z,15.68
2022-12-18T12:56:59.535Z,15.32
2022-12-18T12:59:37.055Z,18.65
2022-12-18T13:02:17.451Z,16.80
2022-12-18T13:04:52.050Z,19.00
2022-12-18T13:07:28.501Z,19.95
2022-12-18T13:10:26.795Z,15.27
2022-12-18T13:12:58.867Z,17.77
2022-12-18T13:15:32.304Z,20.08
2022-12-18T13:18:12.026Z,17.30
2022-12-18T13:20:46.587Z,17.52
2022-12-18T13:23:31.676Z,17.23
2022-12-18T13:26:00.863Z,19.42
2022-12-18T13:28:54.387Z,16.42
2022-12-18T13:32:00.994Z,19.48
2022-12-18T13:34:31.155Z,15.88
2022-12-18T13:37:42.057Z,16.83
2022-12-18T13:40:52.322Z,23.42
2022-12-18T13:43:31.013Z,18.63
2022-12-18T13:46:05.834Z,22.50
2022-12-18T13:48:37.535Z,18.55
2022-12-18T13:51:08.214Z,19.83
2022-12-18T13:53:43.929Z,21.05
2022-12-18T13:56:20.492Z,21.50
2022-12-18T13:59:07.929Z,20.05
2022-12-18T14:01:36.404Z,19.33
2022-12-18T14:04:12.363Z,22.15
2022-12-18T14:06:54.097Z,22.65
2022-12-18T14:09:28.430Z,23.02
2022-12-18T14:12:13.074Z,24.83
2022-12-18T14:14:45.434Z,23.30
2022-12-18T14:17:15.218Z,17.90
2022-12-18T14:19:45.853Z,20.08
2022-12-18T14:22:19.284Z,19.67
2022-12-18T14:24:49.555Z,26.58
2022-12-18T14:27:24.642Z,25.58
2022-12-18T14:29:53.328Z,25.70
2022-12-18T14:32:22.502Z,25.40
2022-12-18T14:34:55.108Z,25.95
2022-12-18T14:37:24.938Z,20.38
2022-12-18T14:39:59.382Z,23.67
2022-12-18T14:42:29.115Z,24.10
2022-12-18T14:45:41.415Z,20.08
2022-12-18T14:48:18.989Z,20.88
2022-12-18T14:51:00.582Z,22.42
2022-12-18T14:53:40.284Z,28.33
2022-12-18T14:56:22.775Z,24.00
2022-12-18T14:58:52.651Z,27.80
2022-12-18T15:01:26.655Z,30.42
2022-12-18T15:03:57.135Z,22.98
2022-12-18T15:06:29.461Z,27.83
2022-12-18T15:08:57.356Z,24.80
2022-12-18T15:11:31.547Z,25.10
2022-12-18T15:14:01.639Z,30.33
2022-12-18T15:16:29.618Z,28.60
2022-12-18T15:18:57.502Z,30.83
2022-12-18T15:21:25.833Z,31.35
2022-12-18T15:23:55.284Z,24.38
2022-12-18T15:26:28.368Z,28.48
2022-12-18T15:28:59.623Z,24.50
2022-12-18T15:31:32.256Z,31.10
2022-12-18T15:34:22.694Z,28.40
2022-12-18T15:36:52.334Z,26.85
2022-12-18T15:39:20.056Z,25.02
2022-12-18T15:42:02.407Z,28.13
2022-12-18T15:44:34.705Z,29.48
2022-12-18T15:47:02.623Z,24.02
2022-12-18T15:49:30.311Z,26.80
2022-12-18T15:52:01.492Z,26.85
2022-12-18T15:54:46.656Z,26.40
2022-12-18T15:57:27.424Z,32.65
2022-12-18T15:59:59.211Z,26.50
2022-12-18T16:02:27.424Z,29.52
2022-12-18T16:04:55.667Z,28.58
2022-12-18T16:07:25.003Z,29.60
2022-12-18T16:09:53.969Z,25.60
2022-12-18T16:12:26.194Z,28.80
2022-12-18T16:14:54.409Z,28.67
2022-12-18T16:17:23.560Z,25.70
2022-12-18T16:19:51.256Z,26.25
2022-12-18T16:22:23.622Z,23.73
2022-12-18T16:24:52.421Z,28.40
2022-12-18T16:27:20.198Z,28.60
2022-12-18T16:29:48.308Z,28.00
2022-12-18T16:32:18.412Z,25.15
2022-12-18T16:34:48.092Z,26.67
2022-12-18T16:37:16.977Z,29.17
2022-12-18T16:39:45.178Z,30.00
2022-12-18T16:42:17.333Z,31.98
2022-12-18T16:44:45.870Z,27.02
2022-12-18T16:47:15.335Z,28.52
2022-12-18T16:49:45.268Z,28.88
2022-12-18T16:52:15.472Z,29.90
2022-12-18T16:54:43.949Z,27.77
2022-12-18T16:57:15.545Z,25.20
2022-12-18T16:59:43.462Z,25.00
2022-12-18T17:02:15.773Z,28.63
2022-12-18T17:04:46.066Z,23.02
2022-12-18T17:07:15.720Z,29.95
2022-12-18T17:09:44.376Z,28.85
2022-12-18T17:12:12.257Z,29.33
2022-12-18T17:14:40.258Z,27.85
2022-12-18T17:17:20.841Z,24.13
2022-12-18T17:19:49.716Z,26.65
2022-12-18T17:22:19.103Z,29.50
2022-12-18T17:24:47.872Z,28.48
2022-12-18T17:27:16.233Z,23.58
2022-12-18T17:29:48.063Z,27.48
2022-12-18T17:32:17.190Z,23.40
2022-12-18T17:34:46.727Z,22.38
2022-12-18T17:37:14.597Z,21.45
2022-12-18T17:39:43.783Z,22.33
2022-12-18T17:42:14.898Z,25.73
2022-12-18T17:44:44.329Z,24.13
2022-12-18T17:47:13.135Z,23.88
2022-12-18T17:49:41.462Z,22.60
2022-12-18T17:52:09.338Z,26.75
2022-12-18T17:54:39.856Z,22.63
2022-12-18T17:57:09.574Z,25.02
2022-12-18T17:59:37.980Z,23.40
2022-12-18T18:02:06.083Z,23.42
2022-12-18T18:04:35.128Z,20.92
2022-12-18T18:07:03.090Z,19.67
2022-12-18T18:09:31.218Z,23.08
2022-12-18T18:12:16.485Z,21.35
2022-12-18T18:14:45.811Z,19.80
2022-12-18T18:17:13.864Z,19.27
2022-12-18T18:19:42.271Z,20.45
2022-12-18T18:22:12.330Z,22.52
2022-12-18T18:24:43.630Z,19.70
2022-12-18T18:27:11.562Z,17.23
2022-12-18T18:29:39.782Z,19.55
2022-12-18T18:32:09.130Z,21.50
2022-12-18T18:34:41.125Z,19.95
2022-12-18T18:37:10.772Z,20.88
2022-12-18T18:39:38.850Z,19.80
2022-12-18T18:42:06.982Z,20.88
2022-12-18T18:44:35.348Z,15.93
2022-12-18T18:47:03.611Z,17.65
2022-12-18T18:49:35.555Z,16.20
2022-12-18T18:52:03.478Z,18.38
2022-12-18T18:54:31.322Z,17.83
2022-12-18T18:59:47.946Z,15.88
2022-12-18T19:02:17.632Z,15.95
2022-12-18T19:04:47.437Z,17.80
2022-12-18T19:07:20.345Z,15.70
2022-12-18T19:10:04.892Z,15.23
2022-12-18T19:12:51.827Z,16.17
2022-12-18T19:15:19.837Z,15.75
2022-12-18T19:17:47.892Z,14.38
2022-12-18T19:20:17.515Z,16.23
2022-12-18T19:22:51.989Z,17.08
2022-12-18T19:25:29.961Z,15.35
2022-12-18T19:28:16.439Z,15.63
2022-12-18T19:30:50.274Z,14.05
2022-12-18T19:33:41.652Z,15.38
2022-12-18T19:36:14.407Z,15.75
2022-12-18T19:38:43.007Z,14.30
2022-12-18T19:41:14.224Z,12.10
2022-12-18T19:43:43.063Z,15.93
2022-12-18T19:46:14.221Z,15.55
2022-12-18T19:48:46.045Z,16.27
2022-12-18T19:51:18.491Z,12.52
2022-12-18T19:53:48.785Z,16.25
2022-12-18T19:56:24.560Z,16.52
2022-12-18T19:59:04.441Z,16.15
2022-12-18T20:01:34.882Z,14.88
2022-12-18T20:04:03.439Z,18.70
2022-12-18T20:06:35.620Z,14.88
2022-12-18T20:09:06.109Z,17.08
2022-12-18T20:11:41.332Z,29.80
2022-12-18T20:14:10.566Z,22.30
2022-12-18T20:16:38.732Z,19.83
2022-12-18T20:19:07.041Z,18.42
2022-12-18T20:21:36.233Z,16.17
2022-12-18T20:24:04.440Z,18.10
2022-12-18T20:26:32.190Z,18.48
2022-12-18T20:29:00.024Z,16.45
2022-12-18T20:31:27.784Z,15.90
2022-12-18T20:34:00.327Z,18.38
2022-12-18T20:36:31.794Z,19.23
2022-12-18T20:39:03.875Z,18.23
2022-12-18T20:41:38.529Z,15.95
2022-12-18T20:44:14.027Z,17.02
2022-12-18T20:46:50.393Z,20.80
2022-12-18T20:49:18.300Z,18.98
2022-12-18T20:51:46.197Z,17.80
2022-12-18T20:54:15.282Z,18.65
2022-12-18T20:56:45.853Z,18.63
2022-12-18T20:59:13.679Z,19.10
2022-12-18T21:01:48.032Z,19.58
2022-12-18T21:04:18.216Z,18.70
2022-12-18T21:06:52.094Z,20.38
2022-12-18T21:09:24.001Z,20.55
2022-12-18T21:12:11.126Z,19.10
2022-12-18T21:14:42.001Z,21.90
2022-12-18T21:17:09.873Z,20.15
2022-12-18T21:19:38.132Z,19.52
2022-12-18T21:22:06.349Z,19.48
2022-12-18T21:24:35.786Z,20.33
2022-12-18T21:27:03.700Z,20.58
2022-12-18T21:29:31.508Z,18.33
2022-12-18T21:31:59.200Z,18.08
2022-12-18T21:34:28.887Z,18.83
2022-12-18T21:36:58.686Z,19.88
2022-12-18T21:39:27.419Z,19.27
2022-12-18T21:42:14.980Z,21.30
2022-12-18T21:44:51.015Z,24.48
2022-12-18T21:47:22.854Z,23.73
2022-12-18T21:49:52.645Z,17.30
2022-12-18T21:52:31.757Z,19.65
2022-12-18T21:55:07.927Z,25.85
2022-12-18T21:57:38.367Z,22.95
2022-12-18T22:00:07.363Z,18.75
2022-12-18T22:02:43.813Z,23.38
2022-12-18T22:05:11.704Z,20.50
2022-12-18T22:07:39.720Z,19.20
2022-12-18T22:10:08.536Z,19.75
2022-12-18T22:12:42.916Z,20.45
2022-12-18T22:15:21.388Z,20.35
2022-12-18T22:17:59.924Z,21.05
2022-12-18T22:20:27.825Z,18.75
2022-12-18T22:22:57.194Z,20.63
2022-12-18T22:25:24.929Z,19.05
2022-12-18T22:28:06.721Z,25.75
2022-12-18T22:30:36.002Z,20.90
2022-12-18T22:33:06.558Z,20.00
2022-12-18T22:35:34.702Z,19.55
2022-12-18T22:38:02.589Z,23.38
2022-12-18T22:40:33.674Z,19.15
2022-12-18T22:43:01.685Z,19.92
2022-12-18T22:45:29.446Z,22.80
2022-12-18T22:47:58.936Z,18.40
2022-12-18T22:50:26.905Z,19.38
2022-12-18T22:52:54.600Z,18.20
2022-12-18T22:55:22.472Z,21.83
2022-12-18T22:57:53.302Z,17.80
2022-12-18T23:00:23.915Z,18.67
2022-12-18T23:02:59.439Z,17.63
2022-12-18T23:05:30.926Z,19.23
2022-12-18T23:07:59.301Z,22.80
2022-12-18T23:10:27.637Z,20.98
2022-12-18T23:12:55.498Z,18.35
2022-12-18T23:15:28.180Z,19.75
2022-12-18T23:17:58.025Z,24.58
2022-12-18T23:20:26.221Z,21.63
2022-12-18T23:22:55.577Z,21.20
2022-12-18T23:25:23.561Z,18.40
2022-12-18T23:27:51.465Z,20.98
2022-12-18T23:30:19.216Z,19.38
2022-12-18T23:32:47.227Z,21.65
2022-12-18T23:35:15.831Z,19.27
2022-12-18T23:38:00.516Z,18.10
2022-12-18T23:40:30.808Z,21.08
2022-12-18T23:43:00.020Z,19.45
2022-12-18T23:45:27.791Z,20.92
2022-12-18T23:47:55.636Z,19.33
2022-12-18T23:50:28.881Z,24.15
2022-12-18T23:53:05.275Z,20.55
2022-12-18T23:55:40.474Z,21.00
2022-12-18T23:58:09.353Z,22.13
